Time;durP1;ratioP1;P1;durP2;ratioP2;P2;SDS_P1;SDS_P2;PMS_P1;PMS_P2;Temp;Humidity;BMP_temperature;BMP_pressure;BME280_temperature;BME280_humidity;BME280_pressure;Samples;Min_cycle;Max_cycle;Signal;HPM_P1;HPM_P2
2023/06/26 00:00:03;;;;;;;3.80;2.60;;;26.90;1.00;;;;;;4880285;29;20517;-54
2023/06/26 00:02:32;;;;;;;3.38;2.30;;;26.90;1.00;;;;;;4880414;29;20140;-52
2023/06/26 00:05:02;;;;;;;3.33;2.35;;;26.90;1.00;;;;;;4880374;29;20577;-52
2023/06/26 00:07:30;;;;;;;2.22;1.75;;;26.90;1.00;;;;;;4880293;29;20055;-54
2023/06/26 00:09:58;;;;;;;3.65;2.50;;;26.90;1.00;;;;;;5050710;23;20135;-52
2023/06/26 00:12:25;;;;;;;4.13;2.85;;;26.90;1.00;;;;;;4880341;29;20055;-52
2023/06/26 00:14:52;;;;;;;6.95;3.08;;;26.90;1.00;;;;;;4880034;29;20056;-54
2023/06/26 00:17:19;;;;;;;3.38;2.40;;;26.90;1.00;;;;;;4880030;29;20076;-53
2023/06/26 00:19:46;;;;;;;3.75;2.60;;;26.90;1.00;;;;;;4864025;29;20450;-52
2023/06/26 00:22:13;;;;;;;5.78;2.15;;;26.90;1.00;;;;;;4879953;29;20133;-56
2023/06/26 00:24:40;;;;;;;3.67;2.30;;;26.90;1.00;;;;;;4879726;29;20466;-57
2023/06/26 00:27:07;;;;;;;3.92;3.15;;;26.90;1.00;;;;;;4879799;29;20113;-53
2023/06/26 00:29:35;;;;;;;3.28;2.08;;;26.90;1.00;;;;;;4880003;29;20128;-52
2023/06/26 00:32:02;;;;;;;3.72;2.58;;;26.90;1.00;;;;;;4863008;29;20399;-55
2023/06/26 00:34:28;;;;;;;3.85;2.50;;;26.90;1.00;;;;;;4863153;29;20414;-55
2023/06/26 00:36:55;;;;;;;4.38;2.78;;;26.90;1.00;;;;;;4879912;29;20049;-55
2023/06/26 00:39:25;;;;;;;5.35;2.95;;;26.90;1.00;;;;;;4879792;29;20041;-54
2023/06/26 00:41:55;;;;;;;3.60;2.60;;;26.90;1.00;;;;;;4863031;29;20049;-58
2023/06/26 00:44:22;;;;;;;3.55;2.78;;;26.90;1.00;;;;;;4862539;29;20105;-55
2023/06/26 00:46:50;;;;;;;3.28;2.25;;;26.80;1.00;;;;;;4879521;29;20172;-55
2023/06/26 00:49:17;;;;;;;3.47;2.55;;;26.80;1.00;;;;;;4879593;29;20128;-53
2023/06/26 00:51:44;;;;;;;5.85;2.90;;;26.80;1.00;;;;;;4862659;29;20506;-53
2023/06/26 00:54:11;;;;;;;7.78;3.00;;;26.80;1.00;;;;;;4879275;29;20041;-53
2023/06/26 00:56:39;;;;;;;5.10;2.97;;;26.80;1.00;;;;;;4879515;29;20458;-57
2023/06/26 00:59:06;;;;;;;3.75;2.60;;;26.80;1.00;;;;;;4879404;29;20131;-53
2023/06/26 01:01:33;;;;;;;2.95;2.00;;;26.80;1.00;;;;;;4879101;29;20049;-55
2023/06/26 01:04:00;;;;;;;4.00;2.65;;;26.80;1.00;;;;;;4879132;29;20059;-56
2023/06/26 01:06:31;;;;;;;4.55;2.55;;;26.80;1.00;;;;;;4862639;29;20486;-54
2023/06/26 01:12:02;;;;;;;3.78;2.80;;;26.80;1.00;;;;;;4856292;29;20065;-58
2023/06/26 01:14:30;;;;;;;3.28;2.40;;;26.80;1.00;;;;;;4858779;29;20049;-53
2023/06/26 01:16:57;;;;;;;4.07;3.15;;;26.80;1.00;;;;;;4856310;29;20046;-56
2023/06/26 01:19:28;;;;;;;4.55;2.53;;;26.80;1.00;;;;;;4859410;29;20050;-52
2023/06/26 01:22:04;;;;;;;3.25;2.15;;;26.80;1.00;;;;;;4860230;29;20042;-54
2023/06/26 01:24:38;;;;;;;4.80;3.60;;;26.80;1.00;;;;;;4860282;29;20053;-53
2023/06/26 01:27:06;;;;;;;4.40;3.15;;;26.80;1.00;;;;;;4840551;29;20092;-54
2023/06/26 01:29:33;;;;;;;4.50;2.88;;;26.70;1.00;;;;;;4856006;29;20085;-54
2023/06/26 01:32:01;;;;;;;5.03;2.80;;;26.70;1.00;;;;;;4855702;29;20050;-54
2023/06/26 01:34:29;;;;;;;4.47;2.65;;;26.70;1.00;;;;;;4859377;29;20494;-55
2023/06/26 01:36:55;;;;;;;4.47;2.97;;;26.70;1.00;;;;;;4840508;29;20089;-52
2023/06/26 01:39:22;;;;;;;4.75;3.17;;;26.70;1.00;;;;;;4842417;29;20133;-58
2023/06/26 01:41:50;;;;;;;6.85;3.33;;;26.70;1.00;;;;;;4860026;29;20068;-52
2023/06/26 01:44:32;;;;;;;4.40;3.08;;;26.70;1.00;;;;;;4859641;29;20045;-53
2023/06/26 01:47:04;;;;;;;5.80;2.95;;;26.70;1.00;;;;;;4840311;29;20058;-52
2023/06/26 01:49:52;;;;;;;4.85;2.83;;;26.70;1.00;;;;;;4858531;29;20046;-51
2023/06/26 01:52:45;;;;;;;3.58;2.45;;;26.70;1.00;;;;;;4840516;29;20062;-53
2023/06/26 01:55:30;;;;;;;4.85;2.55;;;26.70;1.00;;;;;;4840486;29;20521;-54
2023/06/26 01:57:59;;;;;;;4.15;2.80;;;26.70;1.00;;;;;;4855439;29;20563;-52
2023/06/26 02:00:26;;;;;;;5.55;2.60;;;26.70;1.00;;;;;;4850760;29;20056;-56
2023/06/26 02:02:53;;;;;;;4.50;2.90;;;26.70;1.00;;;;;;4850866;29;20049;-56
2023/06/26 02:05:20;;;;;;;3.75;2.47;;;26.70;1.00;;;;;;4858310;29;20049;-53
2023/06/26 02:07:47;;;;;;;5.32;2.88;;;26.60;1.00;;;;;;4858447;29;20050;-52
2023/06/26 02:13:02;;;;;;;4.35;3.03;;;26.60;1.00;;;;;;4930013;23;20053;-54
2023/06/26 02:15:30;;;;;;;3.22;2.47;;;26.70;1.00;;;;;;4861697;29;20048;-53
2023/06/26 02:17:56;;;;;;;5.15;3.05;;;26.60;1.00;;;;;;4861491;29;20041;-54
2023/06/26 02:20:23;;;;;;;4.38;3.22;;;26.60;1.00;;;;;;4861250;29;20056;-54
2023/06/26 02:22:50;;;;;;;5.25;2.88;;;26.60;1.00;;;;;;4861113;29;20052;-57
2023/06/26 02:25:18;;;;;;;6.43;2.90;;;26.60;1.00;;;;;;4861243;29;20076;-53
2023/06/26 02:27:44;;;;;;;4.85;3.17;;;26.60;1.00;;;;;;4861284;29;20049;-55
2023/06/26 02:30:11;;;;;;;5.82;3.13;;;26.60;1.00;;;;;;4861090;29;20487;-57
2023/06/26 02:32:38;;;;;;;6.07;3.67;;;26.60;1.00;;;;;;4861078;29;20045;-58
2023/06/26 02:35:06;;;;;;;6.60;3.15;;;26.60;1.00;;;;;;4877996;29;20075;-54
2023/06/26 02:37:33;;;;;;;5.57;2.92;;;26.60;1.00;;;;;;4878020;29;20123;-53
2023/06/26 02:40:00;;;;;;;4.93;2.80;;;26.60;1.00;;;;;;4861114;29;20048;-54
2023/06/26 02:42:27;;;;;;;5.18;2.97;;;26.60;1.00;;;;;;4877903;29;20041;-53
2023/06/26 02:44:54;;;;;;;5.60;2.72;;;26.60;1.00;;;;;;4897382;23;20451;-53
2023/06/26 02:47:21;;;;;;;4.55;3.17;;;26.50;1.00;;;;;;4895213;29;20472;-55
2023/06/26 02:49:48;;;;;;;5.00;2.55;;;26.50;1.00;;;;;;4879779;29;20045;-57
2023/06/26 02:52:15;;;;;;;5.65;3.22;;;26.50;1.00;;;;;;4868540;29;20053;-51
2023/06/26 02:54:42;;;;;;;9.55;3.05;;;26.50;1.00;;;;;;4860866;29;20056;-51
2023/06/26 02:57:10;;;;;;;5.20;3.17;;;26.50;1.00;;;;;;4861088;29;20041;-51
2023/06/26 02:59:39;;;;;;;4.38;2.33;;;26.50;1.00;;;;;;4861191;29;20084;-52
2023/06/26 03:02:06;;;;;;;4.82;2.50;;;26.50;1.00;;;;;;4860817;29;20051;-53
2023/06/26 03:04:42;;;;;;;5.20;2.42;;;26.50;1.00;;;;;;4864681;29;20049;-52
2023/06/26 03:07:12;;;;;;;5.13;3.10;;;26.50;1.00;;;;;;4883430;29;20063;-53
2023/06/26 03:09:40;;;;;;;4.88;2.85;;;26.50;1.00;;;;;;4883255;29;20052;-50
2023/06/26 03:12:08;;;;;;;5.95;2.53;;;26.50;1.00;;;;;;4883020;29;20079;-52
2023/06/26 03:14:35;;;;;;;5.82;2.80;;;26.40;1.00;;;;;;4955947;23;20573;-53
2023/06/26 03:17:03;;;;;;;7.07;3.17;;;26.40;1.00;;;;;;4914478;29;20056;-56
2023/06/26 03:19:32;;;;;;;4.45;2.78;;;26.40;1.00;;;;;;4914466;29;20064;-53
2023/06/26 03:22:22;;;;;;;3.97;2.47;;;26.40;1.00;;;;;;4891192;29;20056;-51
2023/06/26 03:24:49;;;;;;;6.43;2.78;;;26.40;1.00;;;;;;4912606;29;20044;-53
2023/06/26 03:27:17;;;;;;;5.65;2.75;;;26.40;1.00;;;;;;4897955;29;20048;-55
2023/06/26 03:29:46;;;;;;;3.42;2.13;;;26.40;1.00;;;;;;4912472;29;20100;-50
2023/06/26 03:32:14;;;;;;;4.18;2.45;;;26.40;1.00;;;;;;4913390;29;20424;-53
2023/06/26 03:34:40;;;;;;;5.20;2.03;;;26.40;1.00;;;;;;4898085;29;20140;-54
2023/06/26 03:37:07;;;;;;;5.85;2.30;;;26.30;1.00;;;;;;4899570;29;20491;-53
2023/06/26 03:39:34;;;;;;;5.85;2.42;;;26.30;1.00;;;;;;4890917;29;20447;-54
2023/06/26 03:42:02;;;;;;;4.70;2.22;;;26.30;1.00;;;;;;4898622;29;20047;-57
2023/06/26 03:47:21;;;;;;;5.13;2.58;;;26.30;1.00;;;;;;4858552;29;20049;-51
2023/06/26 03:49:48;;;;;;;6.35;2.13;;;26.30;1.00;;;;;;4860826;29;20049;-54
2023/06/26 03:52:14;;;;;;;8.68;2.72;;;26.30;1.00;;;;;;4862360;29;20109;-53
2023/06/26 03:54:41;;;;;;;4.20;2.15;;;26.30;1.00;;;;;;4863475;29;20135;-52
2023/06/26 03:57:09;;;;;;;6.05;2.20;;;26.30;1.00;;;;;;4863599;29;20045;-52
2023/06/26 03:59:36;;;;;;;4.03;1.88;;;26.20;1.00;;;;;;4880482;29;20105;-50
2023/06/26 04:02:03;;;;;;;4.20;1.88;;;26.30;1.00;;;;;;4863556;29;20122;-53
2023/06/26 04:04:30;;;;;;;9.18;3.13;;;26.30;1.00;;;;;;4863313;29;20107;-52
2023/06/26 04:06:59;;;;;;;7.43;3.33;;;26.20;1.00;;;;;;4849862;29;20052;-52
2023/06/26 04:09:26;;;;;;;6.18;2.38;;;26.20;1.00;;;;;;4844266;29;20476;-52
2023/06/26 04:11:53;;;;;;;8.95;2.75;;;26.30;1.00;;;;;;4866946;29;20037;-54
2023/06/26 04:14:20;;;;;;;16.05;4.00;;;26.40;1.00;;;;;;4863801;29;20049;-54
2023/06/26 04:16:47;;;;;;;13.23;3.22;;;26.40;1.00;;;;;;4985161;23;20059;-53
2023/06/26 04:19:13;;;;;;;28.88;3.63;;;26.30;1.00;;;;;;4922458;29;20488;-52
2023/06/26 04:21:41;;;;;;;11.18;3.25;;;26.20;1.00;;;;;;4919828;29;20051;-54
2023/06/26 04:24:08;;;;;;;10.45;4.03;;;26.10;1.00;;;;;;4928764;29;20441;-54
2023/06/26 04:26:35;;;;;;;8.00;2.47;;;25.90;1.00;;;;;;4925951;29;20036;-55
2023/06/26 04:29:03;;;;;;;9.52;3.83;;;25.90;1.00;;;;;;4931802;29;20043;-54
2023/06/26 04:31:30;;;;;;;9.18;2.33;;;25.90;1.00;;;;;;4935565;29;20403;-51
2023/06/26 04:33:57;;;;;;;18.70;3.10;;;26.00;1.00;;;;;;4936119;29;20083;-54
2023/06/26 04:36:28;;;;;;;6.05;2.80;;;26.00;1.00;;;;;;4936382;29;20439;-53
2023/06/26 04:38:55;;;;;;;7.32;2.55;;;26.00;1.00;;;;;;4936468;29;20044;-54
2023/06/26 04:41:22;;;;;;;7.10;3.05;;;26.10;1.00;;;;;;4936117;29;20063;-55
2023/06/26 04:43:49;;;;;;;8.55;2.22;;;26.10;1.00;;;;;;4936077;29;20046;-54
2023/06/26 04:46:16;;;;;;;8.30;3.03;;;26.10;1.00;;;;;;5189662;23;20027;-56
2023/06/26 04:48:44;;;;;;;5.22;1.90;;;26.10;1.00;;;;;;4891559;29;20037;-53
2023/06/26 04:51:11;;;;;;;6.90;2.28;;;26.10;1.00;;;;;;4898056;29;20040;-53
2023/06/26 04:53:38;;;;;;;7.15;2.45;;;26.10;1.00;;;;;;4897832;29;20044;-55
2023/06/26 04:56:05;;;;;;;10.13;2.78;;;26.10;1.00;;;;;;4898143;29;20137;-53
2023/06/26 04:58:32;;;;;;;4.95;2.10;;;26.10;1.00;;;;;;4898130;29;20040;-52
2023/06/26 05:00:59;;;;;;;7.78;2.25;;;26.20;1.00;;;;;;4897875;29;20041;-55
2023/06/26 05:03:25;;;;;;;6.80;2.30;;;26.10;1.00;;;;;;4897802;29;20044;-54
2023/06/26 05:05:53;;;;;;;3.83;2.25;;;26.20;1.00;;;;;;4897959;29;20059;-58
2023/06/26 05:08:25;;;;;;;7.03;1.90;;;26.20;1.00;;;;;;4897770;29;20044;-52
2023/06/26 05:10:58;;;;;;;5.82;1.95;;;26.20;1.00;;;;;;4897941;29;20044;-53
2023/06/26 05:13:26;;;;;;;5.45;2.05;;;26.20;1.00;;;;;;4897619;29;20044;-54
2023/06/26 05:15:53;;;;;;;6.75;1.73;;;26.20;1.00;;;;;;4897858;29;20051;-56
2023/06/26 05:18:20;;;;;;;8.93;2.47;;;26.20;1.00;;;;;;4881154;29;20052;-55
2023/06/26 05:20:47;;;;;;;4.32;1.92;;;26.20;1.00;;;;;;4897702;29;20365;-55
2023/06/26 05:23:16;;;;;;;7.68;2.13;;;26.20;1.00;;;;;;4897245;29;20044;-55
2023/06/26 05:25:43;;;;;;;6.65;2.92;;;26.20;1.00;;;;;;4897602;29;20124;-55
2023/06/26 05:28:12;;;;;;;6.10;2.15;;;26.20;1.00;;;;;;4897588;29;20044;-54
2023/06/26 05:30:39;;;;;;;6.47;2.25;;;26.20;1.00;;;;;;4897599;29;20434;-54
2023/06/26 05:33:10;;;;;;;4.88;1.80;;;26.20;1.00;;;;;;4897365;29;20044;-57
2023/06/26 05:35:37;;;;;;;7.88;2.42;;;26.20;1.00;;;;;;4897590;29;20052;-55
2023/06/26 05:38:04;;;;;;;4.40;1.90;;;26.20;1.00;;;;;;4897619;29;20041;-54
2023/06/26 05:40:31;;;;;;;6.70;2.00;;;26.20;1.00;;;;;;4897293;29;20416;-56
2023/06/26 05:42:58;;;;;;;8.43;2.25;;;26.20;1.00;;;;;;4897431;29;20075;-52
2023/06/26 05:45:25;;;;;;;5.35;2.22;;;26.20;1.00;;;;;;4897891;29;20041;-54
2023/06/26 05:47:52;;;;;;;3.55;1.48;;;26.20;1.00;;;;;;4897471;29;20096;-53
2023/06/26 05:50:19;;;;;;;6.40;2.72;;;26.20;1.00;;;;;;4901244;29;21532;-55
2023/06/26 05:52:47;;;;;;;4.47;1.85;;;26.20;1.00;;;;;;4916129;29;20050;-52
2023/06/26 05:55:14;;;;;;;2.97;1.52;;;26.20;1.00;;;;;;4916294;29;20107;-55
2023/06/26 05:57:41;;;;;;;7.30;1.80;;;26.30;1.00;;;;;;4916758;29;20043;-54
2023/06/26 06:00:11;;;;;;;3.42;1.67;;;26.30;1.00;;;;;;4916042;29;20040;-53
2023/06/26 06:02:42;;;;;;;3.42;1.70;;;26.30;1.00;;;;;;4916990;29;20040;-54
2023/06/26 06:05:10;;;;;;;4.63;1.50;;;26.30;1.00;;;;;;4916572;29;20061;-55
2023/06/26 06:07:37;;;;;;;5.88;2.20;;;26.30;1.00;;;;;;4917679;29;20044;-58
2023/06/26 06:10:04;;;;;;;6.10;2.13;;;26.30;1.00;;;;;;4919682;29;20382;-55
2023/06/26 06:12:31;;;;;;;3.88;1.52;;;26.30;1.00;;;;;;4919240;29;20091;-53
2023/06/26 06:14:58;;;;;;;3.97;1.52;;;26.30;1.00;;;;;;4916121;29;20140;-52
2023/06/26 06:17:25;;;;;;;4.07;1.65;;;26.30;1.00;;;;;;4920884;29;20047;-55
2023/06/26 06:19:52;;;;;;;6.20;1.80;;;26.30;1.00;;;;;;4983565;23;20349;-56
2023/06/26 06:22:19;;;;;;;7.30;2.40;;;26.30;1.00;;;;;;4901227;29;20064;-53
2023/06/26 06:24:46;;;;;;;4.65;1.70;;;26.30;1.00;;;;;;4901752;29;20040;-53
2023/06/26 06:27:14;;;;;;;5.13;1.75;;;26.30;1.00;;;;;;4916855;29;20041;-53
2023/06/26 06:29:41;;;;;;;3.28;1.67;;;26.30;1.00;;;;;;4920723;29;20048;-52
2023/06/26 06:32:08;;;;;;;3.40;1.60;;;26.30;1.00;;;;;;4920385;29;20040;-52
2023/06/26 06:34:35;;;;;;;4.35;1.98;;;26.40;1.00;;;;;;4920617;29;20048;-51
2023/06/26 06:37:03;;;;;;;3.85;1.90;;;26.40;1.00;;;;;;4919723;29;20496;-53
2023/06/26 06:39:30;;;;;;;5.47;1.45;;;26.40;1.00;;;;;;4916671;29;20496;-53
2023/06/26 06:41:57;;;;;;;3.70;1.80;;;26.40;1.00;;;;;;4915205;29;20040;-54
2023/06/26 06:44:24;;;;;;;3.67;1.60;;;26.40;1.00;;;;;;4915049;29;20056;-54
2023/06/26 06:46:51;;;;;;;3.90;1.98;;;26.40;1.00;;;;;;4915553;29;20063;-54
2023/06/26 06:49:19;;;;;;;5.63;2.80;;;26.40;1.00;;;;;;4898408;29;20551;-53
2023/06/26 06:51:46;;;;;;;4.65;2.08;;;26.50;1.00;;;;;;4940361;23;20087;-52
2023/06/26 06:54:15;;;;;;;5.63;2.28;;;26.50;1.00;;;;;;4917130;29;20106;-53
2023/06/26 06:56:42;;;;;;;3.20;2.15;;;26.50;1.00;;;;;;4934341;29;20283;-54
2023/06/26 06:59:09;;;;;;;3.45;1.40;;;26.50;1.00;;;;;;4917234;29;20488;-56
2023/06/26 07:01:36;;;;;;;3.65;2.17;;;26.50;1.00;;;;;;4934267;29;20291;-53
2023/06/26 07:04:04;;;;;;;5.30;2.10;;;26.50;1.00;;;;;;4933957;29;20046;-53
2023/06/26 07:06:31;;;;;;;3.90;1.85;;;26.50;1.00;;;;;;4933848;29;20044;-51
2023/06/26 07:08:58;;;;;;;5.38;2.78;;;26.50;1.00;;;;;;4933945;29;20123;-56
2023/06/26 07:11:25;;;;;;;4.07;2.30;;;26.50;1.00;;;;;;4933761;29;20039;-55
2023/06/26 07:13:52;;;;;;;4.35;1.70;;;26.50;1.00;;;;;;4933807;29;20032;-53
2023/06/26 07:16:19;;;;;;;3.90;2.00;;;26.50;1.00;;;;;;4933849;29;20526;-55
2023/06/26 07:18:46;;;;;;;4.20;1.92;;;26.50;1.00;;;;;;4933985;29;20048;-56
2023/06/26 07:21:12;;;;;;;4.53;2.08;;;26.50;1.00;;;;;;5061700;23;20061;-52
2023/06/26 07:23:40;;;;;;;4.32;1.63;;;26.60;1.00;;;;;;4859370;29;20049;-52
2023/06/26 07:26:07;;;;;;;5.47;2.33;;;26.60;1.00;;;;;;4859440;29;20045;-55
2023/06/26 07:28:33;;;;;;;4.35;2.20;;;26.60;1.00;;;;;;4858882;29;20041;-52
2023/06/26 07:31:00;;;;;;;4.55;1.60;;;26.60;1.00;;;;;;4858375;29;20037;-55
2023/06/26 07:33:27;;;;;;;6.10;2.13;;;26.60;1.00;;;;;;4858937;29;20050;-50
2023/06/26 07:35:54;;;;;;;5.70;1.60;;;26.60;1.00;;;;;;4859012;29;20524;-53
2023/06/26 07:38:21;;;;;;;5.10;1.98;;;26.60;1.00;;;;;;4857919;29;20062;-53
2023/06/26 07:40:48;;;;;;;5.38;1.70;;;26.60;1.00;;;;;;4858840;29;20074;-54
2023/06/26 07:43:15;;;;;;;1.50;1.13;;;26.60;1.00;;;;;;4858692;29;20114;-53
2023/06/26 07:45:42;;;;;;;4.05;1.83;;;26.60;1.00;;;;;;4858795;29;20486;-55
2023/06/26 07:48:09;;;;;;;4.68;2.22;;;26.60;1.00;;;;;;4858980;29;20402;-51
2023/06/26 07:50:36;;;;;;;5.28;1.50;;;26.70;1.00;;;;;;4860797;29;20322;-54
2023/06/26 07:53:05;;;;;;;4.50;1.75;;;26.70;1.00;;;;;;4988322;23;20139;-51
2023/06/26 07:55:32;;;;;;;5.75;1.80;;;26.70;1.00;;;;;;4899187;29;20104;-53
2023/06/26 07:57:59;;;;;;;6.93;1.50;;;26.70;1.00;;;;;;4899102;29;20048;-55
2023/06/26 08:00:26;;;;;;;5.43;1.30;;;26.70;1.00;;;;;;4895592;29;20052;-54
2023/06/26 08:02:53;;;;;;;3.83;1.33;;;26.70;1.00;;;;;;4880167;29;20041;-56
2023/06/26 08:05:20;;;;;;;5.95;1.40;;;26.70;1.00;;;;;;4880635;29;20076;-53
2023/06/26 08:07:47;;;;;;;6.35;2.28;;;26.70;1.00;;;;;;4880330;29;20041;-54
2023/06/26 08:10:14;;;;;;;3.47;1.65;;;26.70;1.00;;;;;;4880241;29;20119;-57
2023/06/26 08:12:42;;;;;;;4.93;1.77;;;26.70;1.00;;;;;;4879930;29;20037;-53
2023/06/26 08:15:09;;;;;;;7.43;1.63;;;26.70;1.00;;;;;;4880296;29;20067;-51
2023/06/26 08:17:37;;;;;;;3.60;1.25;;;26.70;1.00;;;;;;4880097;29;20421;-51
2023/06/26 08:20:07;;;;;;;5.03;1.25;;;26.70;1.00;;;;;;4879982;29;20554;-52
2023/06/26 08:22:34;;;;;;;3.08;1.15;;;26.70;1.00;;;;;;4986920;23;20056;-55
2023/06/26 08:25:03;;;;;;;6.28;2.50;;;26.70;1.00;;;;;;4895001;29;20079;-54
2023/06/26 08:27:29;;;;;;;4.55;1.23;;;26.70;1.00;;;;;;4899035;29;20052;-53
2023/06/26 08:29:56;;;;;;;5.80;1.55;;;26.70;1.00;;;;;;4899001;29;20079;-51
2023/06/26 08:32:23;;;;;;;8.05;1.67;;;26.70;1.00;;;;;;4898815;29;20037;-53
2023/06/26 08:34:50;;;;;;;3.75;1.23;;;26.70;1.00;;;;;;4898805;29;20044;-50
2023/06/26 08:37:17;;;;;;;4.13;1.73;;;26.70;1.00;;;;;;4899021;29;20036;-50
2023/06/26 08:39:44;;;;;;;6.22;1.70;;;26.70;1.00;;;;;;4898962;29;20044;-53
2023/06/26 08:42:11;;;;;;;4.05;1.20;;;26.70;1.00;;;;;;4898729;29;20048;-52
2023/06/26 08:44:38;;;;;;;3.80;1.33;;;26.70;1.00;;;;;;4898596;29;20439;-54
2023/06/26 08:47:22;;;;;;;2.72;1.27;;;26.70;1.00;;;;;;4898981;29;20120;-52
2023/06/26 08:50:11;;;;;;;5.95;1.30;;;26.70;1.00;;;;;;4898674;29;20132;-51
2023/06/26 08:55:29;;;;;;;6.22;2.13;;;26.70;1.00;;;;;;5100789;23;20056;-53
2023/06/26 08:57:56;;;;;;;2.22;1.00;;;26.70;1.00;;;;;;4916627;29;20050;-52
2023/06/26 09:00:23;;;;;;;5.65;1.27;;;26.70;1.00;;;;;;4898118;29;20052;-50
2023/06/26 09:02:50;;;;;;;3.45;1.17;;;26.70;1.00;;;;;;4871443;29;20068;-52
2023/06/26 09:05:18;;;;;;;7.22;1.60;;;26.70;1.00;;;;;;4879433;29;20119;-57
2023/06/26 09:07:45;;;;;;;4.63;1.35;;;26.70;1.00;;;;;;4879138;29;20053;-56
2023/06/26 09:10:12;;;;;;;5.30;1.40;;;26.70;1.00;;;;;;4879086;29;20041;-58
2023/06/26 09:12:39;;;;;;;3.47;1.73;;;26.70;1.00;;;;;;4878748;29;20060;-57
2023/06/26 09:15:07;;;;;;;9.82;1.50;;;26.70;1.00;;;;;;4879252;29;20111;-53
2023/06/26 09:17:40;;;;;;;5.45;1.63;;;26.70;1.00;;;;;;4895741;29;20051;-56
2023/06/26 09:20:08;;;;;;;2.90;1.15;;;26.70;1.00;;;;;;4898113;29;20128;-58
2023/06/26 09:22:41;;;;;;;7.07;1.23;;;26.70;1.00;;;;;;4897501;29;20051;-56
2023/06/26 09:25:09;;;;;;;3.40;1.33;;;26.70;1.00;;;;;;4918439;23;20229;-56
2023/06/26 09:27:36;;;;;;;6.43;1.65;;;26.70;1.00;;;;;;4887360;29;20504;-52
2023/06/26 09:30:04;;;;;;;3.80;1.35;;;26.70;1.00;;;;;;4897464;29;20087;-54
2023/06/26 09:32:31;;;;;;;4.13;1.63;;;26.70;1.00;;;;;;4897535;29;20083;-51
2023/06/26 09:35:00;;;;;;;3.47;1.50;;;26.70;1.00;;;;;;4897348;29;20052;-54
2023/06/26 09:37:27;;;;;;;5.00;1.35;;;26.70;1.00;;;;;;4897435;29;20064;-52
2023/06/26 09:39:53;;;;;;;4.38;1.50;;;26.70;1.00;;;;;;4897588;29;20044;-52
2023/06/26 09:42:21;;;;;;;8.30;1.40;;;26.70;1.00;;;;;;4897252;29;20041;-50
2023/06/26 09:44:48;;;;;;;2.22;1.15;;;26.70;1.00;;;;;;4897384;29;20092;-51
2023/06/26 09:47:21;;;;;;;4.45;1.38;;;26.70;1.00;;;;;;4883255;29;20417;-54
2023/06/26 09:49:52;;;;;;;3.53;1.20;;;26.70;1.00;;;;;;4878398;29;20041;-54
2023/06/26 09:52:19;;;;;;;5.00;1.30;;;26.70;1.00;;;;;;4861899;29;20445;-51
2023/06/26 09:54:46;;;;;;;3.60;1.52;;;26.70;1.00;;;;;;4878369;29;20044;-51
2023/06/26 09:57:18;;;;;;;3.22;1.25;;;26.70;1.00;;;;;;5109937;23;20111;-54
2023/06/26 09:59:45;;;;;;;2.28;1.20;;;26.70;1.00;;;;;;4916580;29;20068;-52
2023/06/26 10:02:12;;;;;;;5.05;0.85;;;26.70;1.00;;;;;;4898752;29;20104;-51
2023/06/26 10:04:39;;;;;;;4.18;1.00;;;26.70;1.00;;;;;;4896788;29;20048;-55
2023/06/26 10:07:11;;;;;;;4.88;1.60;;;26.60;1.00;;;;;;4897099;29;20123;-50
2023/06/26 10:09:41;;;;;;;3.90;1.23;;;26.70;1.00;;;;;;4897165;29;20572;-51
2023/06/26 10:12:19;;;;;;;7.35;2.13;;;26.70;1.00;;;;;;4896161;29;20033;-51
2023/06/26 10:14:47;;;;;;;4.43;1.20;;;26.70;1.00;;;;;;4896611;29;20071;-56
2023/06/26 10:17:18;;;;;;;3.25;1.40;;;26.60;1.00;;;;;;4896809;29;20040;-57
2023/06/26 10:19:47;;;;;;;5.05;1.38;;;26.60;1.00;;;;;;4896759;29;20551;-54
2023/06/26 10:22:20;;;;;;;3.67;1.17;;;26.60;1.00;;;;;;4896817;29;20036;-57
2023/06/26 10:24:47;;;;;;;;;;;26.60;1.00;;;;;;4895557;29;20063;-54
2023/06/26 10:27:22;;;;;;;6.38;1.80;;;26.60;1.00;;;;;;4896730;29;19923;-55
2023/06/26 10:29:55;;;;;;;3.05;1.45;;;26.60;1.00;;;;;;5030416;23;20421;-53
2023/06/26 10:32:25;;;;;;;6.80;1.33;;;26.60;1.00;;;;;;4896335;29;20062;-52
2023/06/26 10:34:53;;;;;;;3.22;1.13;;;26.60;1.00;;;;;;4896413;29;20552;-56
2023/06/26 10:37:20;;;;;;;6.22;2.10;;;26.60;1.00;;;;;;4896517;29;20115;-53
2023/06/26 10:39:51;;;;;;;4.70;1.17;;;26.60;1.00;;;;;;4896400;29;20057;-56
2023/06/26 10:42:19;;;;;;;5.70;1.70;;;26.60;1.00;;;;;;4896319;29;20041;-54
2023/06/26 10:44:47;;;;;;;4.00;1.10;;;26.60;1.00;;;;;;4896168;29;20044;-54
2023/06/26 10:47:38;;;;;;;2.40;1.08;;;26.60;1.00;;;;;;4896264;29;20352;-52
2023/06/26 10:50:26;;;;;;;5.28;1.15;;;26.60;1.00;;;;;;4896150;29;20041;-51
2023/06/26 10:53:14;;;;;;;3.63;1.08;;;26.60;1.00;;;;;;4895953;29;20040;-57
2023/06/26 10:55:56;;;;;;;3.95;1.38;;;26.60;1.00;;;;;;4896231;29;20108;-52
2023/06/26 10:58:40;;;;;;;3.67;1.05;;;26.60;1.00;;;;;;4896111;29;20041;-53
2023/06/26 11:01:24;;;;;;;8.25;1.52;;;26.60;1.00;;;;;;4896491;29;20092;-54
2023/06/26 11:03:58;;;;;;;5.05;1.63;;;26.60;1.00;;;;;;4879595;29;20124;-56
2023/06/26 11:06:25;;;;;;;5.47;1.35;;;26.50;1.00;;;;;;4896275;29;20059;-51
2023/06/26 11:09:13;;;;;;;4.20;1.52;;;26.50;1.00;;;;;;4879592;29;20055;-52
2023/06/26 11:11:52;;;;;;;5.63;2.40;;;26.50;1.00;;;;;;4895839;29;20044;-52
2023/06/26 11:14:20;;;;;;;3.70;0.95;;;26.50;1.00;;;;;;4895829;29;20084;-56
2023/06/26 11:16:48;;;;;;;4.55;1.50;;;26.50;1.00;;;;;;4894051;29;20045;-52
2023/06/26 11:19:18;;;;;;;3.67;1.00;;;26.50;1.00;;;;;;4886237;29;20408;-53
2023/06/26 11:21:45;;;;;;;4.47;1.25;;;26.50;1.00;;;;;;4895826;29;20072;-57
2023/06/26 11:24:13;;;;;;;4.75;1.02;;;26.50;1.00;;;;;;4897494;29;20075;-55
2023/06/26 11:26:44;;;;;;;6.13;1.92;;;26.50;1.00;;;;;;4891176;29;20037;-53
2023/06/26 11:29:12;;;;;;;3.70;1.52;;;26.50;1.00;;;;;;4888965;29;20128;-53
2023/06/26 11:31:41;;;;;;;3.25;1.35;;;26.50;1.00;;;;;;4963778;23;20076;-56
2023/06/26 11:34:12;;;;;;;3.50;1.20;;;26.50;1.00;;;;;;4918437;29;20412;-53
2023/06/26 11:36:42;;;;;;;4.68;1.55;;;26.50;1.00;;;;;;4918345;29;20040;-57
2023/06/26 11:39:09;;;;;;;7.20;1.30;;;26.50;1.00;;;;;;4918325;29;20115;-56
2023/06/26 11:41:39;;;;;;;8.45;1.95;;;26.40;1.00;;;;;;4918043;29;20100;-57
2023/06/26 11:44:09;;;;;;;5.53;1.35;;;26.40;1.00;;;;;;4918087;29;20111;-58
2023/06/26 11:46:37;;;;;;;10.60;1.48;;;26.40;1.00;;;;;;4918128;29;20062;-57
2023/06/26 11:49:05;;;;;;;3.38;1.65;;;26.40;1.00;;;;;;4918362;29;20414;-58
2023/06/26 11:51:33;;;;;;;5.78;1.67;;;26.40;1.00;;;;;;4917897;29;20040;-56
2023/06/26 11:54:04;;;;;;;5.93;1.50;;;26.40;1.00;;;;;;4918173;29;20044;-58
2023/06/26 11:56:31;;;;;;;3.25;0.98;;;26.40;1.00;;;;;;4918048;29;20497;-56
2023/06/26 11:59:03;;;;;;;2.05;0.73;;;26.40;1.00;;;;;;4918059;29;20040;-57
2023/06/26 12:01:37;;;;;;;2.70;1.13;;;26.40;1.00;;;;;;4918600;29;20448;-55
2023/06/26 12:04:07;;;;;;;4.38;1.92;;;26.40;1.00;;;;;;4917888;29;20572;-52
2023/06/26 12:06:36;;;;;;;6.90;1.40;;;26.40;1.00;;;;;;4917943;29;20055;-54
2023/06/26 12:09:12;;;;;;;5.82;2.00;;;26.40;1.00;;;;;;4918120;29;20036;-58
2023/06/26 12:11:42;;;;;;;4.95;1.55;;;26.40;1.00;;;;;;4917512;29;20051;-54
2023/06/26 12:14:10;;;;;;;4.80;1.48;;;26.40;1.00;;;;;;4917632;29;20111;-51
2023/06/26 12:16:38;;;;;;;3.30;0.80;;;26.40;1.00;;;;;;4917629;29;20036;-56
2023/06/26 12:19:06;;;;;;;5.88;1.33;;;26.40;1.00;;;;;;4917757;29;20043;-53
2023/06/26 12:21:45;;;;;;;6.68;1.23;;;26.40;1.00;;;;;;4917476;29;20115;-52
2023/06/26 12:24:18;;;;;;;5.30;1.23;;;26.40;1.00;;;;;;4917521;29;20040;-54
2023/06/26 12:26:48;;;;;;;5.50;1.77;;;26.40;1.00;;;;;;4917438;29;20075;-53
2023/06/26 12:29:18;;;;;;;5.30;1.17;;;26.40;1.00;;;;;;4917298;29;20051;-52
2023/06/26 12:31:49;;;;;;;5.97;1.92;;;26.40;1.00;;;;;;5062327;23;20083;-55
2023/06/26 12:34:20;;;;;;;1.40;0.65;;;26.40;1.00;;;;;;4898397;29;20044;-56
2023/06/26 12:36:49;;;;;;;8.23;1.80;;;26.40;1.00;;;;;;4897627;29;20052;-55
2023/06/26 12:39:22;;;;;;;3.13;1.10;;;26.40;1.00;;;;;;4897412;29;20059;-51
2023/06/26 12:41:53;;;;;;;5.10;1.40;;;26.40;1.00;;;;;;4884100;29;20149;-56
2023/06/26 12:44:21;;;;;;;2.95;1.10;;;26.40;1.00;;;;;;4879468;29;20068;-54
2023/06/26 12:46:55;;;;;;;4.10;1.40;;;26.30;1.00;;;;;;4879629;29;20041;-52
2023/06/26 12:49:31;;;;;;;4.20;1.50;;;26.30;1.00;;;;;;4879745;29;20120;-54
2023/06/26 12:51:59;;;;;;;6.05;1.65;;;26.30;1.00;;;;;;4879523;29;20040;-53
2023/06/26 12:54:27;;;;;;;3.05;1.23;;;26.30;1.00;;;;;;4879372;29;20105;-58
2023/06/26 12:56:54;;;;;;;6.03;0.98;;;26.30;1.00;;;;;;4879442;29;20478;-57
2023/06/26 12:59:22;;;;;;;4.93;1.30;;;26.30;1.00;;;;;;4879486;29;20041;-58
2023/06/26 13:01:49;;;;;;;3.10;1.00;;;26.30;1.00;;;;;;4879670;29;20124;-54
2023/06/26 13:04:16;;;;;;;3.42;1.17;;;26.30;1.00;;;;;;4879216;29;20041;-57
2023/06/26 13:06:43;;;;;;;6.70;1.38;;;26.30;1.00;;;;;;4879278;29;20438;-57
2023/06/26 13:09:11;;;;;;;3.58;1.77;;;26.30;1.00;;;;;;4879429;29;20041;-55
2023/06/26 13:11:38;;;;;;;7.32;1.67;;;26.30;1.00;;;;;;4878820;29;20053;-59
2023/06/26 13:14:05;;;;;;;5.78;1.73;;;26.30;1.00;;;;;;4878848;29;20045;-57
2023/06/26 13:16:38;;;;;;;5.55;1.08;;;26.30;1.00;;;;;;4879145;29;20080;-56